Data for 11/26/2016

Time Sea-Level Adjusted Pressure Absolute Pressure Temperature Relative Humidity Dew Point   
(mb) (inHg) (mb) (inHg) (C) (F) (%) (C) (F)
00:05 1019 30.09 848 25.04 2.9 37.3 37 -10.2 13.6
00:10 1019 30.09 848 25.04 2.9 37.3 37 -10.3 13.4
00:15 1019 30.09 848 25.04 3 37.4 38 -10.1 13.8
00:20 1019 30.09 848 25.04 2.8 37.1 38 -10.1 13.9
00:25 1019 30.09 848 25.04 2.9 37.3 38 -10 14.1
00:30 1019 30.09 848 25.04 2.9 37.2 39 -9.9 14.1
00:35 1019 30.09 848 25.04 2.9 37.3 36 -10.6 12.9
00:40 1019 30.09 848 25.04 3.3 37.9 36 -10.4 13.3
00:45 1019 30.09 848 25.04 3.2 37.8 37 -10.3 13.5
00:50 1019 30.09 848 25.04 3.1 37.6 37 -10.2 13.7
00:55 1019 30.09 848 25.04 3 37.5 37 -10.1 13.7
01:00 1018 30.06 848 25.04 2.9 37.2 39 -9.9 14.2
01:05 1018 30.06 848 25.04 2.7 36.8 39 -10 14.1
01:10 1018 30.06 848 25.04 2.7 36.9 38 -10.3 13.5
01:15 1018 30.06 848 25.04 2.9 37.2 38 -10.2 13.6
01:20 1019 30.09 848 25.04 2.9 37.2 38 -10 14
01:25 1018 30.06 848 25.04 2.8 37.1 38 -10.2 13.7
01:30 1018 30.06 848 25.04 2.9 37.3 38 -10.2 13.6
01:35 1018 30.06 848 25.04 3.1 37.5 35 -10.9 12.4
01:40 1018 30.06 848 25.04 3.2 37.8 36 -10.3 13.4
01:45 1018 30.06 848 25.04 3 37.4 38 -10.1 13.8
01:50 1018 30.06 848 25.04 3 37.4 37 -10.2 13.6
01:55 1018 30.06 848 25.04 2.8 37.1 39 -9.8 14.4
02:00 1018 30.06 848 25.04 2.5 36.6 41 -9.4 15
02:05 1018 30.06 848 25.04 2.4 36.3 41 -9.6 14.7
02:10 1018 30.06 847 25.01 2.5 36.5 40 -9.9 14.1
02:15 1018 30.06 847 25.01 2.6 36.7 40 -9.7 14.6
02:20 1018 30.06 847 25.01 2.4 36.3 42 -9.4 15.1
02:25 1018 30.06 847 25.01 2.1 35.9 44 -9 15.8
02:30 1018 30.06 847 25.01 2 35.5 44 -9.2 15.5
02:35 1018 30.06 847 25.01 2 35.6 42 -9.5 14.8
02:40 1018 30.06 847 25.01 2.3 36.2 41 -9.5 14.9
02:45 1018 30.06 847 25.01 2.5 36.5 40 -9.9 14.2
02:50 1018 30.06 847 25.01 2.9 37.2 38 -10.2 13.6
02:55 1018 30.06 847 25.01 3.2 37.7 37 -10.1 13.8
03:00 1018 30.06 847 25.01 3.1 37.6 37 -10.1 13.9
03:05 1018 30.06 847 25.01 3.1 37.7 37 -10.1 13.9
03:10 1018 30.06 847 25.01 3.1 37.6 39 -9.5 14.9
03:15 1018 30.06 847 25.01 2.8 37 41 -9.4 15.2
03:20 1018 30.06 847 25.01 2.6 36.7 41 -9.4 15
03:25 1018 30.06 847 25.01 2.9 37.2 38 -10 13.9
03:30 1018 30.06 847 25.01 3 37.4 39 -9.8 14.3
03:35 1018 30.06 847 25.01 2.9 37.3 39 -9.7 14.5
03:40 1018 30.06 847 25.01 2.9 37.2 39 -9.7 14.6
03:45 1018 30.06 847 25.01 2.9 37.2 39 -9.6 14.7
03:50 1018 30.06 847 25.01 3.1 37.5 39 -9.6 14.6
03:55 1018 30.06 847 25.01 3.1 37.5 39 -9.7 14.6
04:00 1018 30.06 847 25.01 3.2 37.8 39 -9.5 15
04:05 1018 30.06 847 25.01 3.5 38.3 37 -10 13.9
04:10 1018 30.06 847 25.01 3.7 38.6 36 -10 14
04:15 1018 30.06 847 25.01 3.7 38.6 37 -9.8 14.4
04:20 1018 30.06 847 25.01 3.7 38.6 37 -9.8 14.4
04:25 1018 30.06 847 25.01 3.7 38.6 37 -9.9 14.3
04:30 1018 30.06 847 25.01 3.7 38.7 38 -9.2 15.4
04:35 1018 30.06 847 25.01 3.5 38.3 39 -9.2 15.4
04:40 1018 30.06 847 25.01 3.4 38.1 40 -8.9 15.9
04:45 1018 30.06 847 25.01 3.4 38.1 39 -9.4 15
04:50 1018 30.06 847 25.01 3.7 38.7 37 -9.5 14.8
04:55 1018 30.06 847 25.01 3.7 38.6 38 -9.4 15.1
05:00 1017 30.03 847 25.01 3.7 38.6 38 -9.3 15.2
05:05 1017 30.03 847 25.01 3.6 38.5 39 -9 15.8
05:10 1017 30.03 847 25.01 3.6 38.5 38 -9.3 15.2
05:15 1017 30.03 847 25.01 3.8 38.8 37 -9.5 14.9
05:20 1018 30.06 847 25.01 3.7 38.7 39 -9.1 15.6
05:25 1018 30.06 847 25.01 3.7 38.6 38 -9.4 15.1
05:30 1018 30.06 847 25.01 3.7 38.7 38 -9.2 15.4
05:35 1017 30.03 847 25.01 3.6 38.5 38 -9.5 14.9
05:40 1017 30.03 847 25.01 3.8 38.8 40 -8.8 16.2
05:45 1017 30.03 847 25.01 3.8 38.9 35 -10.4 13.3
05:50 1017 30.03 847 25.01 4.1 39.4 38 -9 15.8
05:55 1017 30.03 847 25.01 3.8 38.9 35 -10.3 13.4
06:00 1017 30.03 847 25.01 4.1 39.5 37 -9.2 15.5
06:05 1017 30.03 847 25.01 4 39.1 35 -10.2 13.6
06:10 1017 30.03 847 25.01 4.2 39.5 33 -10.6 12.9
06:15 1017 30.03 847 25.01 4.3 39.8 33 -10.5 13
06:20 1017 30.03 846 24.98 4.5 40.1 32 -10.7 12.7
06:25 1017 30.03 846 24.98 4.5 40.1 32 -10.7 12.7
06:30 1017 30.03 846 24.98 4.4 39.9 33 -10.5 13
06:35 1017 30.03 846 24.98 4.4 39.9 32 -10.8 12.6
06:40 1017 30.03 846 24.98 4.4 40 32 -11 12.2
06:45 1017 30.03 846 24.98 4.4 40 32 -10.8 12.6
06:50 1017 30.03 846 24.98 4.4 39.9 32 -11.1 12
06:55 1017 30.03 846 24.98 4.4 39.9 32 -10.8 12.5
07:00 1017 30.03 846 24.98 4.3 39.8 32 -10.8 12.5
07:05 1017 30.03 846 24.98 4.1 39.4 33 -10.7 12.7
07:10 1017 30.03 846 24.98 4 39.3 32 -11.1 12
07:15 1017 30.03 846 24.98 4.2 39.5 33 -10.9 12.5
07:20 1017 30.03 846 24.98 4 39.2 31 -11.7 11
07:25 1017 30.03 846 24.98 4.1 39.3 32 -11.1 12.1
07:30 1017 30.03 846 24.98 4 39.2 31 -11.5 11.3
07:35 1017 30.03 846 24.98 4.1 39.4 32 -11.1 12.1
07:40 1017 30.03 846 24.98 3.9 39 32 -11.2 11.8
07:45 1017 30.03 846 24.98 3.8 38.8 32 -11.6 11.1
07:50 1017 30.03 846 24.98 3.9 39.1 32 -11.5 11.4
07:55 1017 30.03 846 24.98 4 39.3 32 -11.4 11.4
08:00 1017 30.03 846 24.98 3.8 38.9 33 -11.2 11.9
08:05 1017 30.03 846 24.98 3.8 38.8 33 -11.3 11.7
08:10 1017 30.03 846 24.98 3.7 38.7 33 -11.3 11.7
08:15 1017 30.03 846 24.98 3.7 38.7 31 -11.8 10.8
08:20 1017 30.03 846 24.98 3.8 38.8 32 -11.5 11.4
08:25 1017 30.03 846 24.98 3.7 38.7 31 -11.8 10.8
08:30 1017 30.03 846 24.98 3.9 39 31 -11.7 10.9
08:35 1017 30.03 846 24.98 3.8 38.9 31 -11.9 10.6
08:40 1017 30.03 846 24.98 3.9 38.9 32 -11.5 11.2
08:45 1017 30.03 846 24.98 3.7 38.7 31 -12 10.5
08:50 1017 30.03 846 24.98 3.7 38.6 32 -11.7 11
08:55 1017 30.03 846 24.98 3.7 38.6 31 -11.9 10.7
09:00 1017 30.03 846 24.98 3.6 38.5 31 -12 10.3
09:05 1017 30.03 846 24.98 3.7 38.6 31 -12 10.3
09:10 1017 30.03 846 24.98 3.7 38.7 31 -12.1 10.3
09:15 1017 30.03 846 24.98 3.7 38.6 31 -11.8 10.7
09:20 1017 30.03 846 24.98 3.7 38.6 30 -12.2 10
09:25 1017 30.03 846 24.98 3.8 38.8 30 -12.5 9.6
09:30 1016 30 846 24.98 3.9 38.9 30 -12.3 9.9
09:35 1016 30 846 24.98 3.8 38.9 30 -12.2 10.1
09:40 1016 30 846 24.98 3.8 38.9 30 -12.3 9.8
09:45 1016 30 846 24.98 4.1 39.4 29 -12.5 9.5
09:50 1016 30 845 24.95 4.5 40 28 -12.5 9.5
09:55 1016 30 845 24.95 4.6 40.4 27 -12.6 9.2
10:00 1016 30 845 24.95 4.7 40.5 28 -12.2 10
10:05 1016 30 845 24.95 4.8 40.6 28 -12.1 10.2
10:10 1016 30 845 24.95 5.1 41.2 27 -12.5 9.4
10:15 1016 30 845 24.95 5.5 41.9 27 -12.1 10.1
10:20 1016 30 845 24.95 5.7 42.3 26 -12.4 9.7
10:25 1016 30 845 24.95 5.8 42.4 26 -12.1 10.2
10:30 1016 30 845 24.95 6 42.8 25 -12.4 9.7
10:35 1016 30 845 24.95 6.2 43.2 25 -12.4 9.6
10:40 1016 30 845 24.95 6.7 44.1 24 -12.6 9.2
10:45 1016 30 845 24.95 7.4 45.3 24 -12.2 10.1
10:50 1016 30 845 24.95 7.9 46.3 23 -11.9 10.6
10:55 1016 30 845 24.95 7.7 45.9 23 -12 10.4
11:00 1016 30 845 24.95 7.8 46 23 -12.2 10
11:05 1016 30 845 24.95 7.9 46.1 23 -11.9 10.6
11:10 1016 30 845 24.95 8.2 46.8 23 -11.9 10.7
11:15 1016 30 845 24.95 8.4 47.1 23 -11.6 11.2
11:20 1016 30 845 24.95 8.7 47.7 22 -11.9 10.6
11:25 1016 30 845 24.95 9.2 48.5 21 -11.8 10.7
11:30 1016 30 845 24.95 9.2 48.5 20 -12.6 9.3
11:35 1015 29.97 845 24.95 9.4 48.8 19 -13.3 8.1
11:40 1015 29.97 845 24.95 9.8 49.6 19 -13 8.6
11:45 1015 29.97 845 24.95 10.1 50.2 18 -13.1 8.4
11:50 1015 29.97 844 24.92 10.2 50.3 15 -15 5
11:55 1015 29.97 844 24.92 10.7 51.3 18 -12.9 8.9
12:00 1015 29.97 844 24.92 10.7 51.3 18 -12.7 9.2
12:05 1015 29.97 844 24.92 10.4 50.8 20 -11.7 11
12:10 1015 29.97 844 24.92 10.2 50.4 21 -11.4 11.6
12:15 1015 29.97 844 24.92 10.4 50.8 20 -11.4 11.5
12:20 1015 29.97 844 24.92 10.4 50.8 19 -12.5 9.4
12:25 1015 29.97 844 24.92 9.9 49.9 21 -11.5 11.2
12:30 1015 29.97 844 24.92 9.6 49.2 21 -11.6 11.1
12:35 1015 29.97 844 24.92 9.2 48.5 25 -9.8 14.3
12:40 1014 29.94 844 24.92 9.1 48.4 24 -10.4 13.2
12:45 1014 29.94 844 24.92 8.7 47.6 24 -10.8 12.6
12:50 1014 29.94 843 24.89 9 48.1 25 -10.3 13.5
12:55 1014 29.94 843 24.89 9.9 49.7 20 -11.9 10.6
13:00 1014 29.94 843 24.89 10.4 50.7 20 -11.5 11.3
13:05 1014 29.94 843 24.89 10.9 51.5 17 -13.3 8
13:10 1014 29.94 843 24.89 11.3 52.4 15 -14.3 6.3
13:15 1014 29.94 843 24.89 12.1 53.7 13 -15.2 4.7
13:20 1014 29.94 843 24.89 11.8 53.2 16 -13.4 7.8
13:25 1014 29.94 843 24.89 11.3 52.4 17 -12.8 9
13:30 1014 29.94 843 24.89 11.6 53 18 -12.2 10
13:35 1013 29.91 843 24.89 11.4 52.6 19 -11.4 11.5
13:40 1013 29.91 842 24.86 10.7 51.3 19 -11.8 10.8
13:45 1013 29.91 842 24.86 11.2 52.1 18 -12.7 9.2
13:50 1013 29.91 842 24.86 11.3 52.3 17 -12.9 8.8
13:55 1013 29.91 842 24.86 11.3 52.4 15 -14 6.7
14:00 1013 29.91 842 24.86 11.2 52.2 18 -12.1 10.2
14:05 1013 29.91 842 24.86 11.4 52.6 18 -11.8 10.8
14:10 1013 29.91 842 24.86 11.5 52.8 18 -11.9 10.5
14:15 1013 29.91 842 24.86 11 51.8 19 -11.7 10.9
14:20 1013 29.91 842 24.86 11.3 52.3 19 -11.8 10.8
14:25 1013 29.91 842 24.86 11.3 52.3 20 -11 12.2
14:30 1012 29.88 842 24.86 11.4 52.4 17 -12.8 9
14:35 1012 29.88 841 24.83 11.6 52.9 15 -13.8 7.1
14:40 1012 29.88 841 24.83 12 53.6 17 -12.7 9.1
14:45 1012 29.88 841 24.83 12.2 54 16 -13 8.6
14:50 1012 29.88 841 24.83 12 53.6 18 -12 10.5
14:55 1012 29.88 841 24.83 11.9 53.3 18 -11.8 10.8
15:00 1012 29.88 841 24.83 12 53.7 16 -12.7 9.2
15:05 1012 29.88 841 24.83 11.9 53.5 17 -12.4 9.7
15:10 1012 29.88 841 24.83 12.5 54.5 15 -13.9 7
15:15 1012 29.88 841 24.83 12.7 54.9 13 -15 5
15:20 1012 29.88 841 24.83 12.1 53.7 13 -15.2 4.7
15:25 1012 29.88 841 24.83 12 53.5 14 -15.1 4.8
15:30 1011 29.85 841 24.83 12 53.6 15 -14.2 6.4
15:35 1011 29.85 841 24.83 11.9 53.4 14 -14.6 5.7
15:40 1011 29.85 841 24.83 12.2 54 13 -15.3 4.4
15:45 1011 29.85 841 24.83 12.7 54.8 12 -16.2 2.8
15:50 1011 29.85 841 24.83 12.4 54.4 13 -15.6 3.9
15:55 1011 29.85 841 24.83 12.4 54.4 12 -15.9 3.4
16:00 1011 29.85 841 24.83 12.1 53.8 14 -14.9 5.1
16:05 1011 29.85 840 24.81 12.1 53.8 14 -14.5 5.9
16:10 1011 29.85 840 24.81 12.3 54.1 13 -15.1 4.8
16:15 1011 29.85 840 24.81 12.2 53.9 13 -15.9 3.4
16:20 1011 29.85 840 24.81 12.1 53.8 12 -16.7 1.9
16:25 1011 29.85 840 24.81 11.9 53.4 13 -16.2 2.9
16:30 1011 29.85 840 24.81 11.9 53.5 14 -15.2 4.6
16:35 1011 29.85 840 24.81 11.3 52.3 14 -15.2 4.6
16:40 1011 29.85 840 24.81 10.8 51.4 14 -16.1 3.1
16:45 1011 29.85 840 24.81 10.5 50.9 14 -16.1 3
16:50 1011 29.85 840 24.81 10.3 50.5 14 -16.5 2.3
16:55 1011 29.85 840 24.81 10.2 50.3 14 -16 3.3
17:00 1011 29.85 840 24.81 10 49.9 14 -16.1 3
17:05 1011 29.85 840 24.81 9.8 49.6 14 -16.5 2.3
17:10 1010 29.83 840 24.81 9.7 49.4 14 -16.9 1.7
17:15 1010 29.83 840 24.81 9.6 49.3 14 -16.3 2.6
17:20 1010 29.83 839 24.78 9.3 48.8 15 -16.4 2.5
17:25 1010 29.83 839 24.78 9.2 48.6 14 -16.6 2
17:30 1010 29.83 839 24.78 9.1 48.4 14 -17 1.3
17:35 1010 29.83 839 24.78 9.1 48.4 13 -17.8 -0.1
17:40 1010 29.83 839 24.78 9.3 48.7 13 -17.9 -0.3
17:45 1010 29.83 839 24.78 9.3 48.8 13 -17.5 0.4
17:50 1010 29.83 839 24.78 9.1 48.3 15 -16.4 2.4
17:55 1010 29.83 839 24.78 8.7 47.7 15 -16.6 2.1
18:00 1010 29.83 839 24.78 8.5 47.3 15 -16.4 2.4
18:05 1010 29.83 839 24.78 8.3 46.9 15 -16.8 1.8
18:10 1010 29.83 839 24.78 8 46.4 17 -15.4 4.3
18:15 1010 29.83 839 24.78 7.6 45.7 18 -15.2 4.6
18:20 1010 29.83 839 24.78 7.4 45.3 19 -14.7 5.6
18:25 1010 29.83 839 24.78 7.5 45.5 14 -18.4 -1.2
18:30 1009 29.8 839 24.78 8 46.4 18 -15.3 4.5
18:35 1009 29.8 839 24.78 7.5 45.5 17 -15.8 3.5
18:40 1009 29.8 839 24.78 7.5 45.5 18 -15.7 3.8
18:45 1009 29.8 839 24.78 7.5 45.5 17 -16.1 3
18:50 1009 29.8 838 24.75 7.4 45.4 18 -15.5 4.2
18:55 1009 29.8 838 24.75 7 44.6 18 -15.6 3.8
19:00 1009 29.8 838 24.75 6.8 44.2 19 -15.2 4.7
19:05 1009 29.8 838 24.75 6.8 44.3 18 -15.7 3.8
19:10 1009 29.8 838 24.75 6.7 44.1 18 -16.1 3.1
19:15 1009 29.8 838 24.75 6.8 44.2 18 -16 3.2
19:20 1009 29.8 838 24.75 6.8 44.2 19 -15.2 4.7
19:25 1009 29.8 838 24.75 6.4 43.6 19 -15.4 4.2
19:30 1009 29.8 838 24.75 6.2 43.1 21 -14.8 5.3
19:35 1009 29.8 838 24.75 6 42.8 21 -14.7 5.6
19:40 1008 29.77 838 24.75 5.8 42.5 22 -14.2 6.5
19:45 1008 29.77 838 24.75 5.4 41.7 22 -14.9 5.1
19:50 1008 29.77 838 24.75 5.5 41.9 20 -15.6 4
19:55 1008 29.77 837 24.72 5.6 42.1 23 -13.9 6.9
20:00 1008 29.77 837 24.72 5.4 41.6 22 -14.8 5.3
20:05 1008 29.77 837 24.72 5.4 41.8 22 -14.9 5.3
20:10 1008 29.77 837 24.72 5.6 42.1 22 -14.7 5.6
20:15 1008 29.77 837 24.72 5.7 42.2 23 -14.1 6.7
20:20 1008 29.77 837 24.72 5.3 41.6 23 -14.4 6
20:25 1008 29.77 837 24.72 5.4 41.7 23 -14.2 6.4
20:30 1008 29.77 837 24.72 5.7 42.3 22 -14.6 5.7
20:35 1008 29.77 837 24.72 5.5 41.9 23 -14.1 6.6
20:40 1008 29.77 837 24.72 5.4 41.8 23 -14 6.9
20:45 1007 29.74 837 24.72 5.2 41.4 23 -14.1 6.5
20:50 1007 29.74 837 24.72 5.2 41.4 25 -13.4 7.8
20:55 1007 29.74 836 24.69 4.8 40.7 25 -13.5 7.7
21:00 1007 29.74 836 24.69 4.6 40.3 26 -13.5 7.7
21:05 1007 29.74 836 24.69 4.8 40.7 24 -14.2 6.5
21:10 1007 29.74 836 24.69 5.1 41.2 24 -13.7 7.3
21:15 1007 29.74 836 24.69 4.7 40.5 26 -13.2 8.2
21:20 1007 29.74 836 24.69 4.1 39.4 29 -12.6 9.3
21:25 1007 29.74 836 24.69 4.3 39.7 26 -13.8 7.2
21:30 1007 29.74 836 24.69 4.7 40.5 26 -13.5 7.8
21:35 1007 29.74 836 24.69 4.8 40.7 25 -13.8 7.2
21:40 1007 29.74 836 24.69 5 41 25 -13.5 7.8
21:45 1007 29.74 836 24.69 5 40.9 25 -13.4 7.9
21:50 1006 29.71 836 24.69 5 41.1 25 -13.3 8
21:55 1006 29.71 836 24.69 5 41 25 -13.3 8.1
22:00 1006 29.71 836 24.69 5.1 41.2 25 -13.6 7.5
22:05 1006 29.71 836 24.69 5.3 41.5 23 -14.1 6.6
22:10 1006 29.71 836 24.69 5.5 41.8 24 -13.7 7.3
22:15 1006 29.71 835 24.66 5.4 41.7 24 -13.5 7.7
22:20 1006 29.71 835 24.66 5.1 41.2 25 -13.4 7.9
22:25 1006 29.71 835 24.66 5 41.1 25 -13.5 7.6
22:30 1006 29.71 835 24.66 5.2 41.3 24 -13.8 7.2
22:35 1006 29.71 835 24.66 5.2 41.4 25 -13.4 7.8
22:40 1006 29.71 835 24.66 4.9 40.8 25 -13.3 8
22:45 1006 29.71 835 24.66 4.8 40.6 26 -13.4 8
22:50 1006 29.71 835 24.66 4.9 40.9 24 -14.1 6.6
22:55 1006 29.71 835 24.66 5.1 41.2 24 -13.8 7.1
23:00 1005 29.68 835 24.66 5.2 41.4 24 -13.9 7
23:05 1005 29.68 835 24.66 5.3 41.6 23 -14.2 6.5
23:10 1005 29.68 835 24.66 5.5 41.8 23 -14.1 6.6
23:15 1005 29.68 834 24.63 5.5 42 23 -14 6.7
23:20 1005 29.68 834 24.63 5.3 41.6 24 -13.6 7.6
23:25 1005 29.68 834 24.63 5 41.1 25 -13.4 7.9
23:30 1005 29.68 834 24.63 5 41 25 -13.5 7.7
23:35 1005 29.68 834 24.63 5.1 41.1 22 -14.9 5.2
23:40 1005 29.68 834 24.63 5.6 42 24 -13.6 7.5
23:45 1005 29.68 834 24.63 5.2 41.3 24 -13.7 7.4
23:50 1005 29.68 834 24.63 5 41 24 -13.8 7.2
23:55 1005 29.68 834 24.63 4.8 40.7 27 -12.6 9.3
24:00 1005 29.68 834 24.63 4.1 39.4 27 -13.5 7.7